sensor_id;sensor_type;location;lat;lon;timestamp;temperature;humidity
290;DHT22;13193;48.874;9.086;2022-11-24T00:01:59;6.20;1.00
290;DHT22;13193;48.874;9.086;2022-11-24T00:04:25;6.40;1.00
290;DHT22;13193;48.874;9.086;2022-11-24T00:06:51;6.30;1.00
290;DHT22;13193;48.874;9.086;2022-11-24T00:09:18;6.30;1.00
290;DHT22;13193;48.874;9.086;2022-11-24T00:11:44;6.40;1.00
290;DHT22;13193;48.874;9.086;2022-11-24T00:14:10;6.90;1.00
290;DHT22;13193;48.874;9.086;2022-11-24T00:16:37;6.50;1.00
290;DHT22;13193;48.874;9.086;2022-11-24T00:19:05;6.50;1.00
290;DHT22;13193;48.874;9.086;2022-11-24T00:21:32;6.60;1.00
290;DHT22;13193;48.874;9.086;2022-11-24T00:23:58;6.70;1.00
290;DHT22;13193;48.874;9.086;2022-11-24T00:26:29;6.60;1.00
290;DHT22;13193;48.874;9.086;2022-11-24T00:28:59;6.60;1.00
290;DHT22;13193;48.874;9.086;2022-11-24T00:31:25;6.70;1.00
290;DHT22;13193;48.874;9.086;2022-11-24T00:33:53;6.70;1.00
290;DHT22;13193;48.874;9.086;2022-11-24T00:36:21;6.80;1.00
290;DHT22;13193;48.874;9.086;2022-11-24T00:38:47;6.90;1.00
290;DHT22;13193;48.874;9.086;2022-11-24T00:41:13;6.90;1.00
290;DHT22;13193;48.874;9.086;2022-11-24T00:43:38;6.90;1.00
290;DHT22;13193;48.874;9.086;2022-11-24T00:46:04;6.80;1.00
290;DHT22;13193;48.874;9.086;2022-11-24T00:48:30;6.80;1.00
290;DHT22;13193;48.874;9.086;2022-11-24T00:51:01;6.80;1.00
290;DHT22;13193;48.874;9.086;2022-11-24T00:53:28;6.30;1.00
290;DHT22;13193;48.874;9.086;2022-11-24T00:55:54;6.70;1.00
290;DHT22;13193;48.874;9.086;2022-11-24T00:58:22;6.40;1.00
290;DHT22;13193;48.874;9.086;2022-11-24T01:00:48;6.50;1.00
290;DHT22;13193;48.874;9.086;2022-11-24T01:03:15;6.90;1.00
290;DHT22;13193;48.874;9.086;2022-11-24T01:05:41;6.50;1.00
290;DHT22;13193;48.874;9.086;2022-11-24T01:08:09;7.00;1.00
290;DHT22;13193;48.874;9.086;2022-11-24T01:10:34;6.60;1.00
290;DHT22;13193;48.874;9.086;2022-11-24T01:13:01;6.60;1.00
290;DHT22;13193;48.874;9.086;2022-11-24T01:15:26;6.50;1.00
290;DHT22;13193;48.874;9.086;2022-11-24T01:17:55;6.50;1.00
290;DHT22;13193;48.874;9.086;2022-11-24T01:20:21;6.80;1.00
290;DHT22;13193;48.874;9.086;2022-11-24T01:22:47;6.50;1.00
290;DHT22;13193;48.874;9.086;2022-11-24T01:25:13;6.40;1.00
290;DHT22;13193;48.874;9.086;2022-11-24T01:27:39;6.50;1.00
290;DHT22;13193;48.874;9.086;2022-11-24T01:30:06;6.50;1.00
290;DHT22;13193;48.874;9.086;2022-11-24T01:32:32;6.60;1.00
290;DHT22;13193;48.874;9.086;2022-11-24T01:34:58;6.70;1.00
290;DHT22;13193;48.874;9.086;2022-11-24T01:37:24;6.80;1.00
290;DHT22;13193;48.874;9.086;2022-11-24T01:39:50;7.60;1.00
290;DHT22;13193;48.874;9.086;2022-11-24T01:42:15;7.60;1.00
290;DHT22;13193;48.874;9.086;2022-11-24T01:44:41;7.20;1.00
290;DHT22;13193;48.874;9.086;2022-11-24T01:47:35;7.30;1.00
290;DHT22;13193;48.874;9.086;2022-11-24T01:50:05;7.40;1.00
290;DHT22;13193;48.874;9.086;2022-11-24T01:52:40;7.60;1.00
290;DHT22;13193;48.874;9.086;2022-11-24T01:55:13;7.60;1.00
290;DHT22;13193;48.874;9.086;2022-11-24T01:57:44;7.60;1.00
290;DHT22;13193;48.874;9.086;2022-11-24T02:00:13;7.80;1.00
290;DHT22;13193;48.874;9.086;2022-11-24T02:02:40;7.80;1.00
290;DHT22;13193;48.874;9.086;2022-11-24T02:05:38;7.80;1.00
290;DHT22;13193;48.874;9.086;2022-11-24T02:08:32;7.90;1.00
290;DHT22;13193;48.874;9.086;2022-11-24T02:10:56;8.00;1.00
290;DHT22;13193;48.874;9.086;2022-11-24T02:13:22;8.00;1.00
290;DHT22;13193;48.874;9.086;2022-11-24T02:15:49;8.10;1.00
290;DHT22;13193;48.874;9.086;2022-11-24T02:18:14;8.00;1.00
290;DHT22;13193;48.874;9.086;2022-11-24T02:20:40;8.00;1.00
290;DHT22;13193;48.874;9.086;2022-11-24T02:23:18;7.90;1.00
290;DHT22;13193;48.874;9.086;2022-11-24T02:28:22;8.00;1.00
290;DHT22;13193;48.874;9.086;2022-11-24T02:30:51;7.70;1.00
290;DHT22;13193;48.874;9.086;2022-11-24T02:33:17;7.70;1.00
290;DHT22;13193;48.874;9.086;2022-11-24T02:35:43;7.90;1.00
290;DHT22;13193;48.874;9.086;2022-11-24T02:38:13;7.90;1.00
290;DHT22;13193;48.874;9.086;2022-11-24T02:40:43;7.80;1.00
290;DHT22;13193;48.874;9.086;2022-11-24T02:43:14;7.70;1.00
290;DHT22;13193;48.874;9.086;2022-11-24T02:45:42;7.70;1.00
290;DHT22;13193;48.874;9.086;2022-11-24T02:48:07;7.70;1.00
290;DHT22;13193;48.874;9.086;2022-11-24T02:50:33;7.70;1.00
290;DHT22;13193;48.874;9.086;2022-11-24T02:52:59;7.60;1.00
290;DHT22;13193;48.874;9.086;2022-11-24T02:55:24;7.50;1.00
290;DHT22;13193;48.874;9.086;2022-11-24T02:57:50;7.40;1.00
290;DHT22;13193;48.874;9.086;2022-11-24T03:00:16;7.30;1.00
290;DHT22;13193;48.874;9.086;2022-11-24T03:02:42;7.20;1.00
290;DHT22;13193;48.874;9.086;2022-11-24T03:05:08;7.10;1.00
290;DHT22;13193;48.874;9.086;2022-11-24T03:07:36;7.00;1.00
290;DHT22;13193;48.874;9.086;2022-11-24T03:10:02;7.00;1.00
290;DHT22;13193;48.874;9.086;2022-11-24T03:12:27;7.00;1.00
290;DHT22;13193;48.874;9.086;2022-11-24T03:14:53;6.90;1.00
290;DHT22;13193;48.874;9.086;2022-11-24T03:17:18;6.80;1.00
290;DHT22;13193;48.874;9.086;2022-11-24T03:19:44;6.80;1.00
290;DHT22;13193;48.874;9.086;2022-11-24T03:22:11;6.70;1.00
290;DHT22;13193;48.874;9.086;2022-11-24T03:24:37;6.70;1.00
290;DHT22;13193;48.874;9.086;2022-11-24T03:27:03;6.60;1.00
290;DHT22;13193;48.874;9.086;2022-11-24T03:29:28;6.50;1.00
290;DHT22;13193;48.874;9.086;2022-11-24T03:31:54;6.90;1.00
290;DHT22;13193;48.874;9.086;2022-11-24T03:34:20;6.50;1.00
290;DHT22;13193;48.874;9.086;2022-11-24T03:36:45;6.50;1.00
290;DHT22;13193;48.874;9.086;2022-11-24T03:39:11;6.40;1.00
290;DHT22;13193;48.874;9.086;2022-11-24T03:41:36;6.50;1.00
290;DHT22;13193;48.874;9.086;2022-11-24T03:44:02;6.50;1.00
290;DHT22;13193;48.874;9.086;2022-11-24T03:46:28;6.60;1.00
290;DHT22;13193;48.874;9.086;2022-11-24T03:48:53;6.70;1.00
290;DHT22;13193;48.874;9.086;2022-11-24T03:51:19;6.80;1.00
290;DHT22;13193;48.874;9.086;2022-11-24T03:53:44;6.80;1.00
290;DHT22;13193;48.874;9.086;2022-11-24T03:56:10;7.00;1.00
290;DHT22;13193;48.874;9.086;2022-11-24T03:58:36;6.90;1.00
290;DHT22;13193;48.874;9.086;2022-11-24T04:01:02;7.00;1.00
290;DHT22;13193;48.874;9.086;2022-11-24T04:03:27;7.10;1.00
290;DHT22;13193;48.874;9.086;2022-11-24T04:05:53;7.10;1.00
290;DHT22;13193;48.874;9.086;2022-11-24T04:08:19;7.30;1.00
290;DHT22;13193;48.874;9.086;2022-11-24T04:10:51;7.30;1.00
290;DHT22;13193;48.874;9.086;2022-11-24T04:13:20;7.30;1.00
290;DHT22;13193;48.874;9.086;2022-11-24T04:15:46;7.40;1.00
290;DHT22;13193;48.874;9.086;2022-11-24T04:18:12;7.30;1.00
290;DHT22;13193;48.874;9.086;2022-11-24T04:20:39;7.30;1.00
290;DHT22;13193;48.874;9.086;2022-11-24T04:23:05;7.40;1.00
290;DHT22;13193;48.874;9.086;2022-11-24T04:25:31;7.30;1.00
290;DHT22;13193;48.874;9.086;2022-11-24T04:27:57;7.40;1.00
290;DHT22;13193;48.874;9.086;2022-11-24T04:30:24;7.40;1.00
290;DHT22;13193;48.874;9.086;2022-11-24T04:32:50;7.50;1.00
290;DHT22;13193;48.874;9.086;2022-11-24T04:35:15;7.50;1.00
290;DHT22;13193;48.874;9.086;2022-11-24T04:37:41;7.60;1.00
290;DHT22;13193;48.874;9.086;2022-11-24T04:40:08;7.60;1.00
290;DHT22;13193;48.874;9.086;2022-11-24T04:42:34;7.60;1.00
290;DHT22;13193;48.874;9.086;2022-11-24T04:45:00;7.70;1.00
290;DHT22;13193;48.874;9.086;2022-11-24T04:47:26;7.70;1.00
290;DHT22;13193;48.874;9.086;2022-11-24T04:49:52;7.70;1.00
290;DHT22;13193;48.874;9.086;2022-11-24T04:52:19;7.70;1.00
290;DHT22;13193;48.874;9.086;2022-11-24T04:54:45;7.60;1.00
290;DHT22;13193;48.874;9.086;2022-11-24T04:57:18;7.50;1.00
290;DHT22;13193;48.874;9.086;2022-11-24T04:59:44;7.40;1.00
290;DHT22;13193;48.874;9.086;2022-11-24T05:02:10;7.30;1.00
290;DHT22;13193;48.874;9.086;2022-11-24T05:04:36;7.20;1.00
290;DHT22;13193;48.874;9.086;2022-11-24T05:07:02;7.10;1.00
290;DHT22;13193;48.874;9.086;2022-11-24T05:09:28;7.00;1.00
290;DHT22;13193;48.874;9.086;2022-11-24T05:11:53;6.90;1.00
290;DHT22;13193;48.874;9.086;2022-11-24T05:14:19;6.90;1.00
290;DHT22;13193;48.874;9.086;2022-11-24T05:16:44;6.90;1.00
290;DHT22;13193;48.874;9.086;2022-11-24T05:19:10;7.00;1.00
290;DHT22;13193;48.874;9.086;2022-11-24T05:21:36;7.10;1.00
290;DHT22;13193;48.874;9.086;2022-11-24T05:24:01;7.20;1.00
290;DHT22;13193;48.874;9.086;2022-11-24T05:26:27;7.20;1.00
290;DHT22;13193;48.874;9.086;2022-11-24T05:28:53;7.20;1.00
290;DHT22;13193;48.874;9.086;2022-11-24T05:31:18;7.30;1.00
290;DHT22;13193;48.874;9.086;2022-11-24T05:33:44;7.30;1.00
290;DHT22;13193;48.874;9.086;2022-11-24T05:36:10;7.40;1.00
290;DHT22;13193;48.874;9.086;2022-11-24T05:38:56;7.50;1.00
290;DHT22;13193;48.874;9.086;2022-11-24T05:41:22;7.60;1.00
290;DHT22;13193;48.874;9.086;2022-11-24T05:43:47;7.70;1.00
290;DHT22;13193;48.874;9.086;2022-11-24T05:46:13;7.70;1.00
290;DHT22;13193;48.874;9.086;2022-11-24T05:48:38;7.70;1.00
290;DHT22;13193;48.874;9.086;2022-11-24T05:51:04;7.70;1.00
290;DHT22;13193;48.874;9.086;2022-11-24T05:53:30;7.70;1.00
290;DHT22;13193;48.874;9.086;2022-11-24T05:55:55;7.70;1.00
290;DHT22;13193;48.874;9.086;2022-11-24T05:58:21;7.70;1.00
290;DHT22;13193;48.874;9.086;2022-11-24T06:00:46;7.70;1.00
290;DHT22;13193;48.874;9.086;2022-11-24T06:03:12;7.70;1.00
290;DHT22;13193;48.874;9.086;2022-11-24T06:05:38;7.70;1.00
290;DHT22;13193;48.874;9.086;2022-11-24T06:08:03;7.60;1.00
290;DHT22;13193;48.874;9.086;2022-11-24T06:10:29;7.70;1.00
290;DHT22;13193;48.874;9.086;2022-11-24T06:12:56;7.70;1.00
290;DHT22;13193;48.874;9.086;2022-11-24T06:15:22;7.70;1.00
290;DHT22;13193;48.874;9.086;2022-11-24T06:17:54;7.70;1.00
290;DHT22;13193;48.874;9.086;2022-11-24T06:20:21;7.80;1.00
290;DHT22;13193;48.874;9.086;2022-11-24T06:22:47;7.80;1.00
290;DHT22;13193;48.874;9.086;2022-11-24T06:25:13;7.80;1.00
290;DHT22;13193;48.874;9.086;2022-11-24T06:27:38;7.80;1.00
290;DHT22;13193;48.874;9.086;2022-11-24T06:30:05;7.80;1.00
290;DHT22;13193;48.874;9.086;2022-11-24T06:32:31;7.70;1.00
290;DHT22;13193;48.874;9.086;2022-11-24T06:34:56;7.80;1.00
290;DHT22;13193;48.874;9.086;2022-11-24T06:37:22;7.80;1.00
290;DHT22;13193;48.874;9.086;2022-11-24T06:39:48;7.80;1.00
290;DHT22;13193;48.874;9.086;2022-11-24T06:42:13;7.90;1.00
290;DHT22;13193;48.874;9.086;2022-11-24T06:44:46;8.00;1.00
290;DHT22;13193;48.874;9.086;2022-11-24T06:47:13;8.00;1.00
290;DHT22;13193;48.874;9.086;2022-11-24T06:49:39;8.10;1.00
290;DHT22;13193;48.874;9.086;2022-11-24T06:52:04;8.10;1.00
290;DHT22;13193;48.874;9.086;2022-11-24T06:54:30;8.20;1.00
290;DHT22;13193;48.874;9.086;2022-11-24T06:56:56;8.30;1.00
290;DHT22;13193;48.874;9.086;2022-11-24T06:59:22;8.40;1.00
290;DHT22;13193;48.874;9.086;2022-11-24T07:01:48;8.50;1.00
290;DHT22;13193;48.874;9.086;2022-11-24T07:04:14;8.50;1.00
290;DHT22;13193;48.874;9.086;2022-11-24T07:06:40;8.60;1.00
290;DHT22;13193;48.874;9.086;2022-11-24T07:09:09;8.70;1.00
290;DHT22;13193;48.874;9.086;2022-11-24T07:11:35;8.70;1.00
290;DHT22;13193;48.874;9.086;2022-11-24T07:14:03;8.80;1.00
290;DHT22;13193;48.874;9.086;2022-11-24T07:16:29;8.90;1.00
290;DHT22;13193;48.874;9.086;2022-11-24T07:18:58;8.80;1.00
290;DHT22;13193;48.874;9.086;2022-11-24T07:21:25;8.90;1.00
290;DHT22;13193;48.874;9.086;2022-11-24T07:23:53;8.90;1.00
290;DHT22;13193;48.874;9.086;2022-11-24T07:26:19;8.90;1.00
290;DHT22;13193;48.874;9.086;2022-11-24T07:28:45;8.90;1.00
290;DHT22;13193;48.874;9.086;2022-11-24T07:31:12;8.90;1.00
290;DHT22;13193;48.874;9.086;2022-11-24T07:33:38;9.00;1.00
290;DHT22;13193;48.874;9.086;2022-11-24T07:36:05;9.30;1.00
290;DHT22;13193;48.874;9.086;2022-11-24T07:38:33;9.00;1.00
290;DHT22;13193;48.874;9.086;2022-11-24T07:41:04;9.00;1.00
290;DHT22;13193;48.874;9.086;2022-11-24T07:43:31;9.00;1.00
290;DHT22;13193;48.874;9.086;2022-11-24T07:45:57;9.10;1.00
290;DHT22;13193;48.874;9.086;2022-11-24T07:48:22;9.10;1.00
290;DHT22;13193;48.874;9.086;2022-11-24T07:50:48;9.10;1.00
290;DHT22;13193;48.874;9.086;2022-11-24T07:53:14;9.10;1.00
290;DHT22;13193;48.874;9.086;2022-11-24T07:55:40;9.20;1.00
290;DHT22;13193;48.874;9.086;2022-11-24T07:58:05;9.30;1.00
290;DHT22;13193;48.874;9.086;2022-11-24T08:00:31;9.30;1.00
290;DHT22;13193;48.874;9.086;2022-11-24T08:02:57;9.40;1.00
290;DHT22;13193;48.874;9.086;2022-11-24T08:05:22;9.40;1.00
290;DHT22;13193;48.874;9.086;2022-11-24T08:07:48;9.50;1.00
290;DHT22;13193;48.874;9.086;2022-11-24T08:10:14;9.60;1.00
290;DHT22;13193;48.874;9.086;2022-11-24T08:12:39;9.60;1.00
290;DHT22;13193;48.874;9.086;2022-11-24T08:15:06;9.60;1.00
290;DHT22;13193;48.874;9.086;2022-11-24T08:17:32;9.60;1.00
290;DHT22;13193;48.874;9.086;2022-11-24T08:19:58;9.60;1.00
290;DHT22;13193;48.874;9.086;2022-11-24T08:22:24;9.60;1.00
290;DHT22;13193;48.874;9.086;2022-11-24T08:24:50;9.70;1.00
290;DHT22;13193;48.874;9.086;2022-11-24T08:27:17;9.70;1.00
290;DHT22;13193;48.874;9.086;2022-11-24T08:29:43;9.70;1.00
290;DHT22;13193;48.874;9.086;2022-11-24T08:32:09;9.70;1.00
290;DHT22;13193;48.874;9.086;2022-11-24T08:34:35;9.70;1.00
290;DHT22;13193;48.874;9.086;2022-11-24T08:37:04;9.80;1.00
290;DHT22;13193;48.874;9.086;2022-11-24T08:39:30;9.80;1.00
290;DHT22;13193;48.874;9.086;2022-11-24T08:41:56;9.90;1.00
290;DHT22;13193;48.874;9.086;2022-11-24T08:44:22;9.90;1.00
290;DHT22;13193;48.874;9.086;2022-11-24T08:46:47;9.90;1.00
290;DHT22;13193;48.874;9.086;2022-11-24T08:49:14;9.80;1.00
290;DHT22;13193;48.874;9.086;2022-11-24T08:51:40;9.90;1.00
290;DHT22;13193;48.874;9.086;2022-11-24T08:54:07;9.80;1.00
290;DHT22;13193;48.874;9.086;2022-11-24T08:56:34;9.80;1.00
290;DHT22;13193;48.874;9.086;2022-11-24T08:59:00;9.80;1.00
290;DHT22;13193;48.874;9.086;2022-11-24T09:01:27;9.70;1.00
290;DHT22;13193;48.874;9.086;2022-11-24T09:03:53;9.80;1.00
290;DHT22;13193;48.874;9.086;2022-11-24T09:06:21;9.80;1.00
290;DHT22;13193;48.874;9.086;2022-11-24T09:08:48;9.90;1.00
290;DHT22;13193;48.874;9.086;2022-11-24T09:11:15;9.90;1.00
290;DHT22;13193;48.874;9.086;2022-11-24T09:13:41;10.00;1.00
290;DHT22;13193;48.874;9.086;2022-11-24T09:18:37;10.20;1.00
290;DHT22;13193;48.874;9.086;2022-11-24T09:21:11;10.30;1.00
290;DHT22;13193;48.874;9.086;2022-11-24T09:23:37;10.40;1.00
290;DHT22;13193;48.874;9.086;2022-11-24T09:26:28;10.50;1.00
290;DHT22;13193;48.874;9.086;2022-11-24T09:28:54;10.50;1.00
290;DHT22;13193;48.874;9.086;2022-11-24T09:31:25;10.60;1.00
290;DHT22;13193;48.874;9.086;2022-11-24T09:33:53;10.70;1.00
290;DHT22;13193;48.874;9.086;2022-11-24T09:36:21;10.80;1.00
290;DHT22;13193;48.874;9.086;2022-11-24T09:38:47;11.00;1.00
290;DHT22;13193;48.874;9.086;2022-11-24T09:41:22;11.00;1.00
290;DHT22;13193;48.874;9.086;2022-11-24T09:46:58;11.10;1.00
290;DHT22;13193;48.874;9.086;2022-11-24T09:49:41;11.20;1.00
290;DHT22;13193;48.874;9.086;2022-11-24T09:52:14;11.20;1.00
290;DHT22;13193;48.874;9.086;2022-11-24T09:54:50;11.20;1.00
290;DHT22;13193;48.874;9.086;2022-11-24T09:57:19;11.30;1.00
290;DHT22;13193;48.874;9.086;2022-11-24T09:59:46;11.30;1.00
290;DHT22;13193;48.874;9.086;2022-11-24T10:02:11;11.40;1.00
290;DHT22;13193;48.874;9.086;2022-11-24T10:04:41;11.50;1.00
290;DHT22;13193;48.874;9.086;2022-11-24T10:09:57;11.60;1.00
290;DHT22;13193;48.874;9.086;2022-11-24T10:12:53;11.70;1.00
290;DHT22;13193;48.874;9.086;2022-11-24T10:18:54;12.00;1.00
290;DHT22;13193;48.874;9.086;2022-11-24T10:24:21;12.10;1.00
290;DHT22;13193;48.874;9.086;2022-11-24T10:27:00;12.10;1.00
290;DHT22;13193;48.874;9.086;2022-11-24T10:29:39;12.10;1.00
290;DHT22;13193;48.874;9.086;2022-11-24T10:32:12;12.10;1.00
290;DHT22;13193;48.874;9.086;2022-11-24T10:34:42;12.20;1.00
290;DHT22;13193;48.874;9.086;2022-11-24T10:37:15;12.30;1.00
290;DHT22;13193;48.874;9.086;2022-11-24T10:42:33;12.40;1.00
290;DHT22;13193;48.874;9.086;2022-11-24T10:45:22;12.40;1.00
290;DHT22;13193;48.874;9.086;2022-11-24T10:47:48;12.50;1.00
290;DHT22;13193;48.874;9.086;2022-11-24T10:52:46;12.60;1.00
290;DHT22;13193;48.874;9.086;2022-11-24T10:55:15;12.70;1.00
290;DHT22;13193;48.874;9.086;2022-11-24T10:57:40;12.60;1.00
290;DHT22;13193;48.874;9.086;2022-11-24T11:00:33;12.60;1.00
290;DHT22;13193;48.874;9.086;2022-11-24T11:03:21;12.50;1.00
290;DHT22;13193;48.874;9.086;2022-11-24T11:08:45;12.50;1.00
290;DHT22;13193;48.874;9.086;2022-11-24T11:11:15;12.40;1.00
290;DHT22;13193;48.874;9.086;2022-11-24T11:13:48;12.30;1.00
290;DHT22;13193;48.874;9.086;2022-11-24T11:19:05;12.60;1.00
290;DHT22;13193;48.874;9.086;2022-11-24T11:21:59;12.80;1.00
290;DHT22;13193;48.874;9.086;2022-11-24T11:24:26;13.00;1.00
290;DHT22;13193;48.874;9.086;2022-11-24T11:27:01;13.10;1.00
290;DHT22;13193;48.874;9.086;2022-11-24T11:29:28;13.40;1.00
290;DHT22;13193;48.874;9.086;2022-11-24T11:32:02;13.50;1.00
290;DHT22;13193;48.874;9.086;2022-11-24T11:34:33;13.40;1.00
290;DHT22;13193;48.874;9.086;2022-11-24T11:37:02;13.30;1.00
290;DHT22;13193;48.874;9.086;2022-11-24T11:39:31;13.00;1.00
290;DHT22;13193;48.874;9.086;2022-11-24T11:42:12;12.80;1.00
290;DHT22;13193;48.874;9.086;2022-11-24T11:49:53;12.60;1.00
290;DHT22;13193;48.874;9.086;2022-11-24T11:52:50;12.60;1.00
290;DHT22;13193;48.874;9.086;2022-11-24T11:58:33;12.80;1.00
290;DHT22;13193;48.874;9.086;2022-11-24T12:01:04;12.90;1.00
290;DHT22;13193;48.874;9.086;2022-11-24T12:18:05;12.70;1.00
290;DHT22;13193;48.874;9.086;2022-11-24T12:20:59;12.60;1.00
290;DHT22;13193;48.874;9.086;2022-11-24T12:28:58;12.60;1.00
290;DHT22;13193;48.874;9.086;2022-11-24T12:31:40;12.60;1.00
290;DHT22;13193;48.874;9.086;2022-11-24T12:38:04;12.60;1.00
290;DHT22;13193;48.874;9.086;2022-11-24T12:40:22;12.50;1.00
290;DHT22;13193;48.874;9.086;2022-11-24T12:42:58;12.50;1.00
290;DHT22;13193;48.874;9.086;2022-11-24T12:45:33;12.40;1.00
290;DHT22;13193;48.874;9.086;2022-11-24T12:48:11;12.50;1.00
290;DHT22;13193;48.874;9.086;2022-11-24T12:50:39;12.50;1.00
290;DHT22;13193;48.874;9.086;2022-11-24T12:53:25;12.50;1.00
290;DHT22;13193;48.874;9.086;2022-11-24T12:55:52;12.50;1.00
290;DHT22;13193;48.874;9.086;2022-11-24T13:01:24;12.60;1.00
290;DHT22;13193;48.874;9.086;2022-11-24T13:04:12;12.70;1.00
290;DHT22;13193;48.874;9.086;2022-11-24T13:07:02;12.80;1.00
290;DHT22;13193;48.874;9.086;2022-11-24T13:09:28;12.90;1.00
290;DHT22;13193;48.874;9.086;2022-11-24T13:12:09;12.90;1.00
290;DHT22;13193;48.874;9.086;2022-11-24T13:14:36;13.00;1.00
290;DHT22;13193;48.874;9.086;2022-11-24T13:17:31;13.10;1.00
290;DHT22;13193;48.874;9.086;2022-11-24T13:25:24;13.20;1.00
290;DHT22;13193;48.874;9.086;2022-11-24T13:27:55;13.30;1.00
290;DHT22;13193;48.874;9.086;2022-11-24T13:33:28;13.30;1.00
290;DHT22;13193;48.874;9.086;2022-11-24T13:38:52;13.10;1.00
290;DHT22;13193;48.874;9.086;2022-11-24T13:47:03;13.10;1.00
290;DHT22;13193;48.874;9.086;2022-11-24T13:49:39;13.00;1.00
290;DHT22;13193;48.874;9.086;2022-11-24T14:00:30;12.80;1.00
290;DHT22;13193;48.874;9.086;2022-11-24T14:03:16;12.70;1.00
290;DHT22;13193;48.874;9.086;2022-11-24T14:05:52;12.70;1.00
290;DHT22;13193;48.874;9.086;2022-11-24T14:08:41;12.60;1.00
290;DHT22;13193;48.874;9.086;2022-11-24T14:11:12;12.40;1.00
290;DHT22;13193;48.874;9.086;2022-11-24T14:13:38;12.20;1.00
290;DHT22;13193;48.874;9.086;2022-11-24T14:16:16;12.00;1.00
290;DHT22;13193;48.874;9.086;2022-11-24T14:18:50;11.80;1.00
290;DHT22;13193;48.874;9.086;2022-11-24T14:21:38;11.70;1.00
290;DHT22;13193;48.874;9.086;2022-11-24T14:24:19;11.50;1.00
290;DHT22;13193;48.874;9.086;2022-11-24T14:26:48;11.40;1.00
290;DHT22;13193;48.874;9.086;2022-11-24T14:29:16;11.20;1.00
290;DHT22;13193;48.874;9.086;2022-11-24T14:31:48;11.10;1.00
290;DHT22;13193;48.874;9.086;2022-11-24T14:34:18;11.00;1.00
290;DHT22;13193;48.874;9.086;2022-11-24T14:36:46;10.90;1.00
290;DHT22;13193;48.874;9.086;2022-11-24T14:39:13;10.80;1.00
290;DHT22;13193;48.874;9.086;2022-11-24T14:41:41;10.70;1.00
290;DHT22;13193;48.874;9.086;2022-11-24T14:44:18;10.60;1.00
290;DHT22;13193;48.874;9.086;2022-11-24T14:46:45;10.50;1.00
290;DHT22;13193;48.874;9.086;2022-11-24T14:49:21;10.50;1.00
290;DHT22;13193;48.874;9.086;2022-11-24T14:52:12;10.50;1.00
290;DHT22;13193;48.874;9.086;2022-11-24T14:54:58;10.50;1.00
290;DHT22;13193;48.874;9.086;2022-11-24T14:57:36;10.60;1.00
290;DHT22;13193;48.874;9.086;2022-11-24T15:05:10;10.80;1.00
290;DHT22;13193;48.874;9.086;2022-11-24T15:07:38;10.80;1.00
290;DHT22;13193;48.874;9.086;2022-11-24T15:10:18;10.70;1.00
290;DHT22;13193;48.874;9.086;2022-11-24T15:12:51;10.60;1.00
290;DHT22;13193;48.874;9.086;2022-11-24T15:15:19;10.40;1.00
290;DHT22;13193;48.874;9.086;2022-11-24T15:17:55;10.30;1.00
290;DHT22;13193;48.874;9.086;2022-11-24T15:25:40;9.70;1.00
290;DHT22;13193;48.874;9.086;2022-11-24T15:28:07;9.60;1.00
290;DHT22;13193;48.874;9.086;2022-11-24T15:30:35;9.40;1.00
290;DHT22;13193;48.874;9.086;2022-11-24T15:33:01;9.30;1.00
290;DHT22;13193;48.874;9.086;2022-11-24T15:35:31;9.10;1.00
290;DHT22;13193;48.874;9.086;2022-11-24T15:37:57;8.90;1.00
290;DHT22;13193;48.874;9.086;2022-11-24T15:40:23;8.80;1.00
290;DHT22;13193;48.874;9.086;2022-11-24T15:42:53;8.60;1.00
290;DHT22;13193;48.874;9.086;2022-11-24T15:45:21;8.50;1.00
290;DHT22;13193;48.874;9.086;2022-11-24T15:47:47;8.40;1.00
290;DHT22;13193;48.874;9.086;2022-11-24T15:50:13;8.20;1.00
290;DHT22;13193;48.874;9.086;2022-11-24T15:52:39;8.10;1.00
290;DHT22;13193;48.874;9.086;2022-11-24T15:55:05;8.00;1.00
290;DHT22;13193;48.874;9.086;2022-11-24T15:57:32;7.90;1.00
290;DHT22;13193;48.874;9.086;2022-11-24T15:59:58;7.80;1.00
290;DHT22;13193;48.874;9.086;2022-11-24T16:02:24;7.70;1.00
290;DHT22;13193;48.874;9.086;2022-11-24T16:04:51;7.60;1.00
290;DHT22;13193;48.874;9.086;2022-11-24T16:07:16;7.50;1.00
290;DHT22;13193;48.874;9.086;2022-11-24T16:09:42;7.50;1.00
290;DHT22;13193;48.874;9.086;2022-11-24T16:12:08;7.40;1.00
290;DHT22;13193;48.874;9.086;2022-11-24T16:14:34;7.40;1.00
290;DHT22;13193;48.874;9.086;2022-11-24T16:17:00;7.30;1.00
290;DHT22;13193;48.874;9.086;2022-11-24T16:19:26;7.20;1.00
290;DHT22;13193;48.874;9.086;2022-11-24T16:21:51;7.10;1.00
290;DHT22;13193;48.874;9.086;2022-11-24T16:24:17;7.00;1.00
290;DHT22;13193;48.874;9.086;2022-11-24T16:26:46;6.90;1.00
290;DHT22;13193;48.874;9.086;2022-11-24T16:29:12;6.90;1.00
290;DHT22;13193;48.874;9.086;2022-11-24T16:31:37;6.70;1.00
290;DHT22;13193;48.874;9.086;2022-11-24T16:34:03;6.70;1.00
290;DHT22;13193;48.874;9.086;2022-11-24T16:36:29;6.60;1.00
290;DHT22;13193;48.874;9.086;2022-11-24T16:38:55;6.50;1.00
290;DHT22;13193;48.874;9.086;2022-11-24T16:41:20;6.40;1.00
290;DHT22;13193;48.874;9.086;2022-11-24T16:43:46;6.30;1.00
290;DHT22;13193;48.874;9.086;2022-11-24T16:46:17;6.10;1.00
290;DHT22;13193;48.874;9.086;2022-11-24T16:48:45;6.00;1.00
290;DHT22;13193;48.874;9.086;2022-11-24T16:51:12;5.90;1.00
290;DHT22;13193;48.874;9.086;2022-11-24T16:53:38;5.80;1.00
290;DHT22;13193;48.874;9.086;2022-11-24T16:56:04;5.70;1.00
290;DHT22;13193;48.874;9.086;2022-11-24T16:58:29;5.60;1.00
290;DHT22;13193;48.874;9.086;2022-11-24T17:01:02;5.60;1.00
290;DHT22;13193;48.874;9.086;2022-11-24T17:03:32;5.60;1.00
290;DHT22;13193;48.874;9.086;2022-11-24T17:05:59;5.60;1.00
290;DHT22;13193;48.874;9.086;2022-11-24T17:08:25;5.50;1.00
290;DHT22;13193;48.874;9.086;2022-11-24T17:10:51;5.50;1.00
290;DHT22;13193;48.874;9.086;2022-11-24T17:13:16;5.40;1.00
290;DHT22;13193;48.874;9.086;2022-11-24T17:15:42;5.40;1.00
290;DHT22;13193;48.874;9.086;2022-11-24T17:18:08;5.30;1.00
290;DHT22;13193;48.874;9.086;2022-11-24T17:20:33;5.30;1.00
290;DHT22;13193;48.874;9.086;2022-11-24T17:23:00;5.20;1.00
290;DHT22;13193;48.874;9.086;2022-11-24T17:25:26;5.20;1.00
290;DHT22;13193;48.874;9.086;2022-11-24T17:27:52;5.10;1.00
290;DHT22;13193;48.874;9.086;2022-11-24T17:30:18;5.10;1.00
290;DHT22;13193;48.874;9.086;2022-11-24T17:32:44;5.00;1.00
290;DHT22;13193;48.874;9.086;2022-11-24T17:35:09;4.90;1.00
290;DHT22;13193;48.874;9.086;2022-11-24T17:37:36;4.90;1.00
290;DHT22;13193;48.874;9.086;2022-11-24T17:40:02;4.80;1.00
290;DHT22;13193;48.874;9.086;2022-11-24T17:42:28;4.70;1.00
290;DHT22;13193;48.874;9.086;2022-11-24T17:44:54;4.70;1.00
290;DHT22;13193;48.874;9.086;2022-11-24T17:47:21;4.60;1.00
290;DHT22;13193;48.874;9.086;2022-11-24T17:49:47;4.50;1.00
290;DHT22;13193;48.874;9.086;2022-11-24T17:52:12;4.40;1.00
290;DHT22;13193;48.874;9.086;2022-11-24T17:54:38;4.40;1.00
290;DHT22;13193;48.874;9.086;2022-11-24T17:57:03;4.30;1.00
290;DHT22;13193;48.874;9.086;2022-11-24T17:59:29;4.30;1.00
290;DHT22;13193;48.874;9.086;2022-11-24T18:01:55;4.20;1.00
290;DHT22;13193;48.874;9.086;2022-11-24T18:04:20;4.20;1.00
290;DHT22;13193;48.874;9.086;2022-11-24T18:06:46;4.10;1.00
290;DHT22;13193;48.874;9.086;2022-11-24T18:09:11;4.10;1.00
290;DHT22;13193;48.874;9.086;2022-11-24T18:11:37;4.10;1.00
290;DHT22;13193;48.874;9.086;2022-11-24T18:14:03;4.10;1.00
290;DHT22;13193;48.874;9.086;2022-11-24T18:16:33;4.10;1.00
290;DHT22;13193;48.874;9.086;2022-11-24T18:19:00;4.10;1.00